createdAt,value
2018-10-12T00:00:49.260Z,56.70
2018-10-12T00:03:17.898Z,56.70
2018-10-12T00:05:46.535Z,53.60
2018-10-12T00:08:15.150Z,54.97
2018-10-12T00:10:43.715Z,59.10
2018-10-12T00:13:12.268Z,52.57
2018-10-12T00:15:40.842Z,57.20
2018-10-12T00:18:09.406Z,54.60
2018-10-12T00:20:38.014Z,59.03
2018-10-12T00:23:06.567Z,55.87
2018-10-12T00:25:35.249Z,59.90
2018-10-12T00:28:03.876Z,66.53
2018-10-12T00:30:32.419Z,55.87
2018-10-12T00:33:00.965Z,58.33
2018-10-12T00:35:29.485Z,60.27
2018-10-12T00:37:58.541Z,57.00
2018-10-12T00:40:27.254Z,55.10
2018-10-12T00:42:55.917Z,58.80
2018-10-12T00:45:24.464Z,56.40
2018-10-12T00:47:58.463Z,55.03
2018-10-12T00:50:27.571Z,56.57
2018-10-12T00:52:56.204Z,57.67
2018-10-12T00:55:26.326Z,59.80
2018-10-12T00:57:54.877Z,58.30
2018-10-12T01:00:24.565Z,60.87
2018-10-12T01:02:53.125Z,60.63
2018-10-12T01:05:21.713Z,57.57
2018-10-12T01:07:50.518Z,60.90
2018-10-12T01:10:19.300Z,59.97
2018-10-12T01:12:48.375Z,63.43
2018-10-12T01:15:17.470Z,62.13
2018-10-12T01:17:46.093Z,61.27
2018-10-12T01:20:14.682Z,61.33
2018-10-12T01:22:43.266Z,64.90
2018-10-12T01:25:11.854Z,61.77
2018-10-12T01:27:40.774Z,63.97
2018-10-12T01:30:09.402Z,63.93
2018-10-12T01:32:43.207Z,64.20
2018-10-12T01:35:11.808Z,67.73
2018-10-12T01:37:40.538Z,69.43
2018-10-12T01:40:09.218Z,64.90
2018-10-12T01:42:44.518Z,70.50
2018-10-12T01:45:13.083Z,63.83
2018-10-12T01:47:41.660Z,64.37
2018-10-12T01:50:10.376Z,72.43
2018-10-12T01:52:39.056Z,72.57
2018-10-12T01:55:07.874Z,70.90
2018-10-12T01:57:36.471Z,68.63
2018-10-12T02:00:05.218Z,72.60
2018-10-12T02:02:33.880Z,67.73
2018-10-12T02:05:02.481Z,71.17
2018-10-12T02:07:31.241Z,70.53
2018-10-12T02:09:59.857Z,77.10
2018-10-12T02:12:28.658Z,72.03
2018-10-12T02:14:57.218Z,75.03
2018-10-12T02:17:25.805Z,79.00
2018-10-12T02:19:54.345Z,76.90
2018-10-12T02:22:23.211Z,74.73
2018-10-12T02:24:51.933Z,72.73
2018-10-12T02:27:20.480Z,83.67
2018-10-12T02:29:49.066Z,72.80
2018-10-12T02:32:17.649Z,73.30
2018-10-12T02:34:46.288Z,71.20
2018-10-12T02:37:14.909Z,77.03
2018-10-12T02:39:43.518Z,80.27
2018-10-12T02:42:12.857Z,74.13
2018-10-12T02:44:42.126Z,76.83
2018-10-12T02:47:10.800Z,76.33
2018-10-12T02:49:39.594Z,76.07
2018-10-12T02:52:08.357Z,74.13
2018-10-12T02:54:36.922Z,72.27
2018-10-12T02:57:05.538Z,72.33
2018-10-12T02:59:34.087Z,71.50
2018-10-12T03:02:02.947Z,73.43
2018-10-12T03:04:31.916Z,68.57
2018-10-12T03:07:00.578Z,67.27
2018-10-12T03:09:29.206Z,65.67
2018-10-12T03:11:57.894Z,63.70
2018-10-12T03:14:26.733Z,71.00
2018-10-12T03:16:55.751Z,65.00
2018-10-12T03:19:25.017Z,65.60
2018-10-12T03:21:53.758Z,62.27
2018-10-12T03:24:22.480Z,64.60
2018-10-12T03:26:51.040Z,60.20
2018-10-12T03:29:19.934Z,61.73
2018-10-12T03:31:49.446Z,60.10
2018-10-12T03:34:18.026Z,61.13
2018-10-12T03:36:46.638Z,60.93
2018-10-12T03:39:15.162Z,58.57
2018-10-12T03:41:44.269Z,57.17
2018-10-12T03:44:13.429Z,61.37
2018-10-12T03:46:43.232Z,55.47
2018-10-12T03:49:12.274Z,54.87
2018-10-12T03:51:40.807Z,57.77
2018-10-12T03:54:09.896Z,57.30
2018-10-12T03:56:38.890Z,59.97
2018-10-12T03:59:07.546Z,51.43
2018-10-12T04:01:36.150Z,59.90
2018-10-12T04:04:04.858Z,54.60
2018-10-12T04:06:33.422Z,56.43
2018-10-12T04:09:01.950Z,51.77
2018-10-12T04:11:30.532Z,54.47
2018-10-12T04:13:59.094Z,52.93
2018-10-12T04:16:27.644Z,53.70
2018-10-12T04:18:56.214Z,54.80
2018-10-12T04:21:25.348Z,51.87
2018-10-12T04:23:53.956Z,52.83
2018-10-12T04:26:22.901Z,51.50
2018-10-12T04:28:51.505Z,51.37
2018-10-12T04:31:20.971Z,51.40
2018-10-12T04:33:49.703Z,51.53
2018-10-12T04:36:18.401Z,51.17
2018-10-12T04:38:58.053Z,48.03
2018-10-12T04:41:27.114Z,49.93
2018-10-12T04:44:00.642Z,53.23
2018-10-12T04:46:33.073Z,50.47
2018-10-12T04:49:02.419Z,52.80
2018-10-12T04:51:35.476Z,54.43
2018-10-12T04:54:04.625Z,53.77
2018-10-12T04:56:33.357Z,58.07
2018-10-12T04:59:02.273Z,58.07
2018-10-12T05:01:32.058Z,57.17
2018-10-12T05:04:00.628Z,56.87
2018-10-12T05:06:30.278Z,54.30
2018-10-12T05:08:58.923Z,60.67
2018-10-12T05:11:27.502Z,62.60
2018-10-12T05:13:56.198Z,57.27
2018-10-12T05:16:26.383Z,55.53
2018-10-12T05:18:55.294Z,55.57
2018-10-12T05:21:23.880Z,54.53
2018-10-12T05:23:52.504Z,53.10
2018-10-12T05:26:21.043Z,50.63
2018-10-12T05:28:49.600Z,55.40
2018-10-12T05:31:18.226Z,53.27
2018-10-12T05:33:47.083Z,52.33
2018-10-12T05:36:16.654Z,54.77
2018-10-12T05:38:45.391Z,54.07
2018-10-12T05:41:14.771Z,51.80
2018-10-12T05:43:44.243Z,53.23
2018-10-12T05:46:13.170Z,49.97
2018-10-12T05:48:52.947Z,50.73
2018-10-12T05:51:21.919Z,55.07
2018-10-12T05:53:51.525Z,50.13
2018-10-12T05:56:26.401Z,50.57
2018-10-12T05:58:56.083Z,52.80
2018-10-12T06:01:25.015Z,46.47
2018-10-12T06:03:54.093Z,45.13
2018-10-12T06:06:22.881Z,46.77
2018-10-12T06:08:53.555Z,48.93
2018-10-12T06:11:22.241Z,45.43
2018-10-12T06:13:51.466Z,39.27
2018-10-12T06:16:20.631Z,38.77
2018-10-12T06:18:49.818Z,36.90
2018-10-12T06:21:18.678Z,38.70
2018-10-12T06:23:47.946Z,34.30
2018-10-12T06:26:17.082Z,34.23
2018-10-12T06:28:45.698Z,39.37
2018-10-12T06:31:14.419Z,35.17
2018-10-12T06:33:43.206Z,38.67
2018-10-12T06:36:12.195Z,39.03
2018-10-12T06:38:40.943Z,33.10
2018-10-12T06:41:09.897Z,31.93
2018-10-12T06:43:38.829Z,31.57
2018-10-12T06:46:08.038Z,34.10
2018-10-12T06:48:36.642Z,32.53
2018-10-12T06:51:05.230Z,31.37
2018-10-12T06:53:33.831Z,31.20
2018-10-12T06:56:02.516Z,31.67
2018-10-12T06:58:31.077Z,33.20
2018-10-12T07:00:59.755Z,34.47
2018-10-12T07:03:28.476Z,35.53
2018-10-12T07:05:57.062Z,34.33
2018-10-12T07:08:25.740Z,36.50
2018-10-12T07:10:54.970Z,34.53
2018-10-12T07:13:23.557Z,36.97
2018-10-12T07:15:52.169Z,34.07
2018-10-12T07:18:20.783Z,30.87
2018-10-12T07:20:50.038Z,31.80
2018-10-12T07:23:19.249Z,30.45
2018-10-12T07:25:48.387Z,28.20
2018-10-12T07:28:17.782Z,31.62
2018-10-12T07:30:46.946Z,30.00
2018-10-12T07:33:16.687Z,30.05
2018-10-12T07:35:45.854Z,35.15
2018-10-12T07:38:15.694Z,33.55
2018-10-12T07:40:44.929Z,30.10
2018-10-12T07:43:14.090Z,30.68
2018-10-12T07:45:43.123Z,28.52
2018-10-12T07:48:12.317Z,31.77
2018-10-12T07:50:42.670Z,31.90
2018-10-12T07:53:12.674Z,30.72
2018-10-12T07:55:41.767Z,31.75
2018-10-12T07:58:10.466Z,30.27
2018-10-12T08:00:39.185Z,30.85
2018-10-12T08:03:08.630Z,30.37
2018-10-12T08:05:37.268Z,27.48
2018-10-12T08:08:06.418Z,30.80
2018-10-12T08:10:36.187Z,27.85
2018-10-12T08:13:05.431Z,28.87
2018-10-12T08:15:34.667Z,29.82
2018-10-12T08:18:03.734Z,28.70
2018-10-12T08:20:32.539Z,30.17
2018-10-12T08:23:02.075Z,30.97
2018-10-12T08:25:30.969Z,30.93
2018-10-12T08:27:59.522Z,29.23
2018-10-12T08:30:28.106Z,27.83
2018-10-12T08:32:56.673Z,28.57
2018-10-12T08:35:25.259Z,30.70
2018-10-12T08:37:53.838Z,29.77
2018-10-12T08:40:23.115Z,26.50
2018-10-12T08:42:51.706Z,26.07
2018-10-12T08:45:20.253Z,24.40
2018-10-12T08:47:48.895Z,29.23
2018-10-12T08:50:17.508Z,26.63
2018-10-12T08:52:46.109Z,24.80
2018-10-12T08:55:15.430Z,27.27
2018-10-12T08:57:44.334Z,26.42
2018-10-12T09:00:13.246Z,23.80
2018-10-12T09:02:41.839Z,22.00
2018-10-12T09:05:10.427Z,23.53
2018-10-12T09:07:39.027Z,25.70
2018-10-12T09:10:07.964Z,23.67
2018-10-12T09:12:36.834Z,25.33
2018-10-12T09:15:05.468Z,25.20
2018-10-12T09:17:34.493Z,25.53
2018-10-12T09:20:03.173Z,24.37
2018-10-12T09:22:31.728Z,24.00
2018-10-12T09:25:00.326Z,27.97
2018-10-12T09:27:29.227Z,22.77
2018-10-12T09:29:57.784Z,26.33
2018-10-12T09:32:26.402Z,24.30
2018-10-12T09:34:55.102Z,22.30
2018-10-12T09:37:23.743Z,23.40
2018-10-12T09:39:52.538Z,23.77
2018-10-12T09:42:21.096Z,22.77
2018-10-12T09:44:50.010Z,24.73
2018-10-12T09:47:18.587Z,24.03
2018-10-12T09:49:47.231Z,23.03
2018-10-12T09:52:15.926Z,25.07
2018-10-12T09:54:44.592Z,25.00
2018-10-12T09:57:18.444Z,25.73
2018-10-12T09:59:47.017Z,24.33
2018-10-12T10:02:21.115Z,24.27
2018-10-12T10:04:49.836Z,27.77
2018-10-12T10:07:18.662Z,22.67
2018-10-12T10:09:47.262Z,25.77
2018-10-12T10:12:16.200Z,24.37
2018-10-12T10:14:44.764Z,24.87
2018-10-12T10:17:13.306Z,22.80
2018-10-12T10:19:41.859Z,23.50
2018-10-12T10:22:10.425Z,25.67
2018-10-12T10:24:39.009Z,22.40
2018-10-12T10:27:08.046Z,23.63
2018-10-12T10:29:36.726Z,24.87
2018-10-12T10:32:05.408Z,22.00
2018-10-12T10:34:34.143Z,22.50
2018-10-12T10:37:03.102Z,24.63
2018-10-12T10:39:31.661Z,24.23
2018-10-12T10:42:00.813Z,30.45
2018-10-12T10:44:29.380Z,23.33
2018-10-12T10:46:57.970Z,25.33
2018-10-12T10:49:26.629Z,24.35
2018-10-12T10:51:55.398Z,25.32
2018-10-12T10:54:23.979Z,27.33
2018-10-12T10:56:54.874Z,25.70
2018-10-12T10:59:23.444Z,24.87
2018-10-12T11:01:52.023Z,26.20
2018-10-12T11:04:20.574Z,25.83
2018-10-12T11:06:49.549Z,24.20
2018-10-12T11:09:18.135Z,24.30
2018-10-12T11:11:46.712Z,23.87
2018-10-12T11:14:15.367Z,22.30
2018-10-12T11:16:44.024Z,21.57
2018-10-12T11:19:12.573Z,21.33
2018-10-12T11:21:41.113Z,23.93
2018-10-12T11:24:09.821Z,20.07
2018-10-12T11:26:38.789Z,21.27
2018-10-12T11:29:07.534Z,21.87
2018-10-12T11:31:36.158Z,22.60
2018-10-12T11:34:04.743Z,19.52
2018-10-12T11:36:33.340Z,21.27
2018-10-12T11:39:01.974Z,21.85
2018-10-12T11:41:31.118Z,23.10
2018-10-12T11:43:59.693Z,20.82
2018-10-12T11:46:28.286Z,19.60
2018-10-12T11:48:56.942Z,22.62
2018-10-12T11:51:26.126Z,20.48
2018-10-12T11:53:54.703Z,21.37
2018-10-12T11:56:23.850Z,20.65
2018-10-12T11:58:52.386Z,22.40
2018-10-12T12:01:21.043Z,20.97
2018-10-12T12:03:49.833Z,21.00
2018-10-12T12:06:18.452Z,19.87
2018-10-12T12:08:47.069Z,22.87
2018-10-12T12:11:15.638Z,20.17
2018-10-12T12:13:44.227Z,20.90
2018-10-12T12:16:13.016Z,24.90
2018-10-12T12:18:41.593Z,21.10
2018-10-12T12:21:10.246Z,20.43
2018-10-12T12:23:38.827Z,20.53
2018-10-12T12:26:07.894Z,22.30
2018-10-12T12:28:36.480Z,19.23
2018-10-12T12:31:05.148Z,17.77
2018-10-12T12:33:34.322Z,20.20
2018-10-12T12:36:03.932Z,20.32
2018-10-12T12:38:32.579Z,17.52
2018-10-12T12:41:01.324Z,19.95
2018-10-12T12:43:30.542Z,17.23
2018-10-12T12:45:59.738Z,17.75
2018-10-12T12:48:28.659Z,16.00
2018-10-12T12:50:57.252Z,22.30
2018-10-12T12:53:26.441Z,17.90
2018-10-12T12:55:55.596Z,17.10
2018-10-12T12:58:24.189Z,18.80
2018-10-12T13:00:53.067Z,16.85
2018-10-12T13:03:22.377Z,15.75
2018-10-12T13:05:51.812Z,19.45
2018-10-12T13:08:20.490Z,17.27
2018-10-12T13:10:49.098Z,16.97
2018-10-12T13:13:17.718Z,17.03
2018-10-12T13:15:46.540Z,16.17
2018-10-12T13:18:15.152Z,17.27
2018-10-12T13:20:43.737Z,19.40
2018-10-12T13:23:12.709Z,21.17
2018-10-12T13:25:41.458Z,18.93
2018-10-12T13:28:10.402Z,20.83
2018-10-12T13:30:39.013Z,21.87
2018-10-12T13:33:07.610Z,22.93
2018-10-12T13:35:36.219Z,17.77
2018-10-12T13:38:04.808Z,17.33
2018-10-12T13:40:33.507Z,17.67
2018-10-12T13:43:02.460Z,17.73
2018-10-12T13:45:31.129Z,17.07
2018-10-12T13:48:00.342Z,18.62
2018-10-12T13:50:29.506Z,17.65
2018-10-12T13:52:58.098Z,18.17
2018-10-12T13:55:26.906Z,16.93
2018-10-12T13:57:55.482Z,18.10
2018-10-12T14:00:24.291Z,19.53
2018-10-12T14:02:53.390Z,20.40
2018-10-12T14:05:22.117Z,19.35
2018-10-12T14:07:50.768Z,19.60
2018-10-12T14:10:19.361Z,20.30
2018-10-12T14:12:48.233Z,19.37
2018-10-12T14:15:17.718Z,21.33
2018-10-12T14:17:46.299Z,17.17
2018-10-12T14:20:14.920Z,18.07
2018-10-12T14:22:44.440Z,19.65
2018-10-12T14:25:13.225Z,17.57
2018-10-12T14:27:42.042Z,17.33
2018-10-12T14:30:10.637Z,18.43
2018-10-12T14:32:39.245Z,19.67
2018-10-12T14:35:08.123Z,18.80
2018-10-12T14:37:37.032Z,18.77
2018-10-12T14:40:05.594Z,18.27
2018-10-12T14:42:35.016Z,18.07
2018-10-12T14:45:03.760Z,18.73
2018-10-12T14:47:32.699Z,18.30
2018-10-12T14:50:01.283Z,21.33
2018-10-12T14:52:29.898Z,19.47
2018-10-12T14:54:58.462Z,20.73
2018-10-12T14:57:27.084Z,19.33
2018-10-12T14:59:55.682Z,20.80
2018-10-12T15:02:24.322Z,20.43
2018-10-12T15:04:52.931Z,20.40
2018-10-12T15:07:21.539Z,25.27
2018-10-12T15:09:50.163Z,23.43
2018-10-12T15:12:18.742Z,22.07
2018-10-12T15:14:58.554Z,23.03
2018-10-12T15:17:27.105Z,20.60
2018-10-12T15:19:55.740Z,21.20
2018-10-12T15:22:24.584Z,22.60
2018-10-12T15:24:53.167Z,22.13
2018-10-12T15:27:21.774Z,24.47
2018-10-12T15:29:50.344Z,21.53
2018-10-12T15:32:18.930Z,20.93
2018-10-12T15:34:47.496Z,21.43
2018-10-12T15:37:16.118Z,21.80
2018-10-12T15:39:44.934Z,22.30
2018-10-12T15:42:13.865Z,21.73
2018-10-12T15:44:42.434Z,26.93
2018-10-12T15:47:11.021Z,20.53
2018-10-12T15:49:44.516Z,23.33
2018-10-12T15:52:13.223Z,22.27
2018-10-12T15:54:41.791Z,21.10
2018-10-12T15:57:10.527Z,22.13
2018-10-12T15:59:39.243Z,21.50
2018-10-12T16:02:08.627Z,25.77
2018-10-12T16:04:37.450Z,23.70
2018-10-12T16:07:06.361Z,26.03
2018-10-12T16:09:34.935Z,24.33
2018-10-12T16:12:03.915Z,25.67
2018-10-12T16:14:32.519Z,24.60
2018-10-12T16:17:01.330Z,29.20
2018-10-12T16:19:29.899Z,24.47
2018-10-12T16:21:58.525Z,24.30
2018-10-12T16:24:27.204Z,29.70
2018-10-12T16:26:55.862Z,31.13
2018-10-12T16:29:24.434Z,30.97
2018-10-12T16:31:53.007Z,32.10
2018-10-12T16:34:21.646Z,29.03
2018-10-12T16:36:50.200Z,32.23
2018-10-12T16:39:18.830Z,30.07
2018-10-12T16:41:47.532Z,29.63
2018-10-12T16:44:16.601Z,28.37
2018-10-12T16:46:46.090Z,28.73
2018-10-12T16:49:14.635Z,26.93
2018-10-12T16:51:43.218Z,33.13
2018-10-12T16:54:11.782Z,29.53
2018-10-12T16:56:40.384Z,29.20
2018-10-12T16:59:09.118Z,33.37
2018-10-12T17:01:38.738Z,40.43
2018-10-12T17:04:07.438Z,53.87
2018-10-12T17:06:36.556Z,57.47
2018-10-12T17:09:05.904Z,54.03
2018-10-12T17:11:34.522Z,43.13
2018-10-12T17:14:03.086Z,36.93
2018-10-12T17:16:31.640Z,36.63
2018-10-12T17:19:00.237Z,31.40
2018-10-12T17:21:28.945Z,25.97
2018-10-12T17:23:57.577Z,33.13
2018-10-12T17:26:26.138Z,33.63
2018-10-12T17:28:54.707Z,27.50
2018-10-12T17:31:23.244Z,32.23
2018-10-12T17:33:51.803Z,30.70
2018-10-12T17:36:20.536Z,30.47
2018-10-12T17:38:49.134Z,37.90
2018-10-12T17:41:19.238Z,39.93
2018-10-12T17:43:48.126Z,51.13
2018-10-12T17:46:17.053Z,44.40
2018-10-12T17:48:45.666Z,40.43
2018-10-12T17:51:14.549Z,42.07
2018-10-12T17:53:43.249Z,38.83
2018-10-12T17:56:11.835Z,37.63
2018-10-12T17:58:40.544Z,33.97
2018-10-12T18:01:09.306Z,34.57
2018-10-12T18:03:37.878Z,29.40
2018-10-12T18:06:06.801Z,32.47
2018-10-12T18:08:35.349Z,28.77
2018-10-12T18:11:03.906Z,31.30
2018-10-12T18:13:32.494Z,29.43
2018-10-12T18:16:01.083Z,31.77
2018-10-12T18:18:29.730Z,31.00
2018-10-12T18:20:58.309Z,29.50
2018-10-12T18:23:26.892Z,32.83
2018-10-12T18:25:55.544Z,29.67
2018-10-12T18:28:24.314Z,28.77
2018-10-12T18:30:52.871Z,29.97
2018-10-12T18:33:21.530Z,30.53
2018-10-12T18:35:50.174Z,32.43
2018-10-12T18:38:18.777Z,31.77
2018-10-12T18:40:47.347Z,32.27
2018-10-12T18:43:16.031Z,30.57
2018-10-12T18:45:44.745Z,27.70
2018-10-12T18:48:13.468Z,27.67
2018-10-12T18:50:42.394Z,27.83
2018-10-12T18:53:11.118Z,29.77
2018-10-12T18:55:39.705Z,31.83
2018-10-12T18:58:08.303Z,32.93
2018-10-12T19:00:36.890Z,28.23
2018-10-12T19:03:05.530Z,30.60
2018-10-12T19:05:34.085Z,33.73
2018-10-12T19:08:02.831Z,29.50
2018-10-12T19:10:31.454Z,31.10
2018-10-12T19:12:59.998Z,30.53
2018-10-12T19:15:28.591Z,26.87
2018-10-12T19:17:57.225Z,28.90
2018-10-12T19:20:25.781Z,27.80
2018-10-12T19:22:54.369Z,30.70
2018-10-12T19:25:23.090Z,25.83
2018-10-12T19:27:51.826Z,31.67
2018-10-12T19:30:20.403Z,30.73
2018-10-12T19:32:49.103Z,29.43
2018-10-12T19:35:17.697Z,28.00
2018-10-12T19:37:46.325Z,27.40
2018-10-12T19:40:14.942Z,28.50
2018-10-12T19:42:43.646Z,26.30
2018-10-12T19:45:12.253Z,28.33
2018-10-12T19:47:41.253Z,27.17
2018-10-12T19:50:09.832Z,30.13
2018-10-12T19:52:38.452Z,27.87
2018-10-12T19:55:07.343Z,29.13
2018-10-12T19:57:35.907Z,25.57
2018-10-12T20:00:04.757Z,29.50
2018-10-12T20:02:33.442Z,26.87
2018-10-12T20:05:02.049Z,28.30
2018-10-12T20:07:30.615Z,27.63
2018-10-12T20:09:59.170Z,30.17
2018-10-12T20:12:27.735Z,30.57
2018-10-12T20:14:56.408Z,33.43
2018-10-12T20:17:25.039Z,38.90
2018-10-12T20:19:53.886Z,34.40
2018-10-12T20:22:22.438Z,35.30
2018-10-12T20:24:51.006Z,34.13
2018-10-12T20:27:19.566Z,32.53
2018-10-12T20:29:48.154Z,34.83
2018-10-12T20:32:16.730Z,29.87
2018-10-12T20:34:45.414Z,31.40
2018-10-12T20:37:13.998Z,30.90
2018-10-12T20:39:42.543Z,28.70
2018-10-12T20:42:11.155Z,28.63
2018-10-12T20:44:39.712Z,32.77
2018-10-12T20:47:08.292Z,28.60
2018-10-12T20:49:36.941Z,31.20
2018-10-12T20:52:05.728Z,29.77
2018-10-12T20:54:34.347Z,26.93
2018-10-12T20:57:02.939Z,32.00
2018-10-12T20:59:31.662Z,32.97
2018-10-12T21:02:00.259Z,29.33
2018-10-12T21:04:28.818Z,28.90
2018-10-12T21:07:01.071Z,30.63
2018-10-12T21:09:29.621Z,32.53
2018-10-12T21:11:58.186Z,30.10
2018-10-12T21:14:26.824Z,31.17
2018-10-12T21:16:55.761Z,31.03
2018-10-12T21:19:24.577Z,32.70
2018-10-12T21:21:53.305Z,30.13
2018-10-12T21:24:21.894Z,31.87
2018-10-12T21:26:50.470Z,31.63
2018-10-12T21:29:19.014Z,31.20
2018-10-12T21:31:47.802Z,38.73
2018-10-12T21:34:16.573Z,34.90
2018-10-12T21:36:45.278Z,35.23
2018-10-12T21:39:14.110Z,34.50
2018-10-12T21:41:42.684Z,35.00
2018-10-12T21:44:11.655Z,33.53
2018-10-12T21:46:40.292Z,33.90
2018-10-12T21:49:08.983Z,33.67
2018-10-12T21:51:37.762Z,30.77
2018-10-12T21:54:06.400Z,34.20
2018-10-12T21:56:35.003Z,32.40
2018-10-12T21:59:03.582Z,33.73
2018-10-12T22:01:32.233Z,30.53
2018-10-12T22:04:00.802Z,29.33
2018-10-12T22:06:29.825Z,31.60
2018-10-12T22:09:02.690Z,33.93
2018-10-12T22:11:31.294Z,36.50
2018-10-12T22:13:59.871Z,30.47
2018-10-12T22:16:28.709Z,33.43
2018-10-12T22:18:57.634Z,37.27
2018-10-12T22:21:26.614Z,36.77
2018-10-12T22:23:55.207Z,37.90
2018-10-12T22:26:23.835Z,34.53
2018-10-12T22:28:52.402Z,39.30
2018-10-12T22:31:20.994Z,35.93
2018-10-12T22:33:49.666Z,39.57
2018-10-12T22:36:19.261Z,37.97
2018-10-12T22:38:48.006Z,40.57
2018-10-12T22:41:16.758Z,41.47
2018-10-12T22:43:45.398Z,43.90
2018-10-12T22:46:14.062Z,41.27
2018-10-12T22:48:42.671Z,46.37
2018-10-12T22:51:11.255Z,42.43
2018-10-12T22:53:40.400Z,45.17
2018-10-12T22:56:09.341Z,43.40
2018-10-12T22:58:38.071Z,39.27
2018-10-12T23:01:07.187Z,37.93
2018-10-12T23:03:35.985Z,42.80
2018-10-12T23:06:04.571Z,41.87
2018-10-12T23:08:33.209Z,40.40
2018-10-12T23:11:01.922Z,43.50
2018-10-12T23:13:30.682Z,45.20
2018-10-12T23:15:59.415Z,41.80
2018-10-12T23:18:28.305Z,40.20
2018-10-12T23:20:58.225Z,40.60
2018-10-12T23:23:26.941Z,42.77
2018-10-12T23:25:55.639Z,41.77
2018-10-12T23:28:24.271Z,43.43
2018-10-12T23:30:52.939Z,41.83
2018-10-12T23:33:32.734Z,40.90
2018-10-12T23:36:01.471Z,45.33
2018-10-12T23:38:30.086Z,40.40
2018-10-12T23:40:58.734Z,40.80
2018-10-12T23:43:27.344Z,43.20
2018-10-12T23:45:55.906Z,44.50
2018-10-12T23:48:24.748Z,41.20
2018-10-12T23:50:55.591Z,43.13
2018-10-12T23:53:24.403Z,43.13
2018-10-12T23:55:53.043Z,41.27
2018-10-12T23:58:24.588Z,49.47
